Terminal Aerodrome Forecast
Issued by NWS

Home | Current Version | Previous Version | Text Only | Print | Product List | Glossary On
Versions: 1 2 3 4 5 6 7 8 9 10 11 12 13 14 15 16 17 18 19 20 21 22 23 24 25 26 27 28 29 30 31 32 33 34
000
FTAK31 PANC 010538
TAFADL
TAF
PADL 010538Z 0106/0206 03011KT P6SM FEW025 FEW200
     FM010800 35010KT P6SM SKC
     FM012200 32012G22KT P6SM SCT050 BKN080
      AMD LTD TO CLD VIS AND WIND 0107/0116=

USA.gov is the U.S. government's official web portal to all federal, state and local government web resources and services.